Sidon, Arkansas
Current Conditions -  °F | °C
As of 4:37 AM on Saturday 22 Nov 2014 (Local Time) from KSRC Reporting Station
Haze Haze  
Wind Chill: 46°   Ceiling: 6000
Heat Index: 46°   Visibility: 4mi
Dew Point: 46°   Wind: 0mph
Humidity: 100%   Direction: NA
Pressure: 30.23"   Gusts: NA
Location:  35.3174°N, 92.0614°W
Report Text: KSRC 221037Z AUTO 00000KT 4SM BR OVC060 08/08 A3023 RMK AO2 TSNO
Loading
Personal Weather Stations






























Interactive Weather Map New forecast layout! Learn more

10-Day Weather Forecast

Advertisements
Track Severe Weather on mobile